sensor_id;sensor_type;location;lat;lon;timestamp;pressure;altitude;pressure_sealevel;temperature;humidity
36834;BME280;48003;52.084;5.224;2023-11-19T00:01:07;100814.0;;;15.43;99.38
36834;BME280;48003;52.084;5.224;2023-11-19T00:04:20;100822.0;;;15.25;100.0
36834;BME280;48003;52.084;5.224;2023-11-19T00:05:56;100810.0;;;14.96;100.0
36834;BME280;48003;52.084;5.224;2023-11-19T00:07:32;100800.0;;;15.15;100.0
36834;BME280;48003;52.084;5.224;2023-11-19T00:09:08;100807.0;;;15.26;100.0
36834;BME280;48003;52.084;5.224;2023-11-19T00:12:20;100803.0;;;15.42;99.98
36834;BME280;48003;52.084;5.224;2023-11-19T00:13:56;100797.0;;;15.37;99.44
36834;BME280;48003;52.084;5.224;2023-11-19T00:15:32;100795.0;;;15.54;99.26
36834;BME280;48003;52.084;5.224;2023-11-19T00:18:45;100808.0;;;15.74;97.7
36834;BME280;48003;52.084;5.224;2023-11-19T00:20:21;100805.0;;;15.55;98.77
36834;BME280;48003;52.084;5.224;2023-11-19T00:21:57;100789.0;;;15.5;98.54
36834;BME280;48003;52.084;5.224;2023-11-19T00:25:09;100789.0;;;15.43;99.54
36834;BME280;48003;52.084;5.224;2023-11-19T00:26:46;100805.0;;;15.7;97.88
36834;BME280;48003;52.084;5.224;2023-11-19T00:28:22;100794.0;;;15.47;98.31
36834;BME280;48003;52.084;5.224;2023-11-19T00:31:36;100799.0;;;15.26;99.85
36834;BME280;48003;52.084;5.224;2023-11-19T00:33:12;100809.0;;;15.45;99.33
36834;BME280;48003;52.084;5.224;2023-11-19T00:34:49;100803.0;;;15.41;99.32
36834;BME280;48003;52.084;5.224;2023-11-19T00:36:25;100797.0;;;15.35;99.46
36834;BME280;48003;52.084;5.224;2023-11-19T00:39:37;100797.0;;;15.49;99.12
36834;BME280;48003;52.084;5.224;2023-11-19T00:41:14;100788.0;;;15.62;97.88
36834;BME280;48003;52.084;5.224;2023-11-19T00:42:51;100782.0;;;15.65;97.8
36834;BME280;48003;52.084;5.224;2023-11-19T00:46:07;100788.0;;;15.56;98.07
36834;BME280;48003;52.084;5.224;2023-11-19T00:47:43;100791.0;;;15.39;98.33
36834;BME280;48003;52.084;5.224;2023-11-19T00:49:20;100781.0;;;15.47;98.2
36834;BME280;48003;52.084;5.224;2023-11-19T00:52:32;100780.0;;;15.46;98.4
36834;BME280;48003;52.084;5.224;2023-11-19T00:54:08;100780.0;;;15.19;99.29
36834;BME280;48003;52.084;5.224;2023-11-19T00:55:44;100773.0;;;15.2;99.73
36834;BME280;48003;52.084;5.224;2023-11-19T00:57:21;100769.0;;;15.33;100.0
36834;BME280;48003;52.084;5.224;2023-11-19T01:00:33;100772.0;;;15.26;99.0
36834;BME280;48003;52.084;5.224;2023-11-19T01:02:09;100784.0;;;15.28;99.02
36834;BME280;48003;52.084;5.224;2023-11-19T01:03:45;100773.0;;;15.22;99.03
36834;BME280;48003;52.084;5.224;2023-11-19T01:06:58;100768.0;;;15.32;98.82
36834;BME280;48003;52.084;5.224;2023-11-19T01:08:34;100781.0;;;15.42;97.99
36834;BME280;48003;52.084;5.224;2023-11-19T01:10:10;100775.0;;;15.34;98.37
36834;BME280;48003;52.084;5.224;2023-11-19T01:13:22;100783.0;;;15.28;98.83
36834;BME280;48003;52.084;5.224;2023-11-19T01:14:58;100783.0;;;15.49;97.89
36834;BME280;48003;52.084;5.224;2023-11-19T01:16:34;100778.0;;;15.41;98.35
36834;BME280;48003;52.084;5.224;2023-11-19T01:18:10;100756.0;;;15.2;99.15
36834;BME280;48003;52.084;5.224;2023-11-19T01:21:24;100751.0;;;15.48;97.92
36834;BME280;48003;52.084;5.224;2023-11-19T01:23:01;100757.0;;;15.39;97.98
36834;BME280;48003;52.084;5.224;2023-11-19T01:24:37;100753.0;;;15.4;97.13
36834;BME280;48003;52.084;5.224;2023-11-19T01:27:49;100747.0;;;15.46;96.46
36834;BME280;48003;52.084;5.224;2023-11-19T01:29:25;100748.0;;;15.31;97.81
36834;BME280;48003;52.084;5.224;2023-11-19T01:31:01;100757.0;;;15.39;97.88
36834;BME280;48003;52.084;5.224;2023-11-19T01:34:13;100760.0;;;15.21;97.84
36834;BME280;48003;52.084;5.224;2023-11-19T01:35:50;100758.0;;;15.44;96.87
36834;BME280;48003;52.084;5.224;2023-11-19T01:37:27;100747.0;;;15.17;98.6
36834;BME280;48003;52.084;5.224;2023-11-19T01:40:39;100769.0;;;15.43;96.84
36834;BME280;48003;52.084;5.224;2023-11-19T01:42:15;100763.0;;;15.35;96.91
36834;BME280;48003;52.084;5.224;2023-11-19T01:43:51;100760.0;;;15.24;97.48
36834;BME280;48003;52.084;5.224;2023-11-19T01:45:29;100748.0;;;15.01;98.04
36834;BME280;48003;52.084;5.224;2023-11-19T01:48:45;100757.0;;;14.97;98.54
36834;BME280;48003;52.084;5.224;2023-11-19T01:50:23;100756.0;;;15.23;96.77
36834;BME280;48003;52.084;5.224;2023-11-19T01:52:01;100746.0;;;15.23;96.1
36834;BME280;48003;52.084;5.224;2023-11-19T01:55:15;100747.0;;;15.12;96.66
36834;BME280;48003;52.084;5.224;2023-11-19T01:56:52;100762.0;;;14.83;97.92
36834;BME280;48003;52.084;5.224;2023-11-19T01:58:30;100750.0;;;15.03;97.67
36834;BME280;48003;52.084;5.224;2023-11-19T02:00:08;100734.0;;;14.83;98.41
36834;BME280;48003;52.084;5.224;2023-11-19T02:03:23;100756.0;;;14.95;97.5
36834;BME280;48003;52.084;5.224;2023-11-19T02:05:00;100755.0;;;14.94;97.57
36834;BME280;48003;52.084;5.224;2023-11-19T02:06:39;100751.0;;;15.05;96.17
36834;BME280;48003;52.084;5.224;2023-11-19T02:09:52;100751.0;;;14.92;96.11
36834;BME280;48003;52.084;5.224;2023-11-19T02:11:29;100742.0;;;14.79;96.46
36834;BME280;48003;52.084;5.224;2023-11-19T02:13:05;100755.0;;;14.68;96.93
36834;BME280;48003;52.084;5.224;2023-11-19T02:14:41;100748.0;;;14.91;96.03
36834;BME280;48003;52.084;5.224;2023-11-19T02:17:53;100742.0;;;14.85;95.26
36834;BME280;48003;52.084;5.224;2023-11-19T02:19:30;100755.0;;;14.74;96.19
36834;BME280;48003;52.084;5.224;2023-11-19T02:21:06;100753.0;;;14.6;96.19
36834;BME280;48003;52.084;5.224;2023-11-19T02:24:22;100760.0;;;14.59;96.72
36834;BME280;48003;52.084;5.224;2023-11-19T02:26:02;100762.0;;;14.68;95.59
36834;BME280;48003;52.084;5.224;2023-11-19T02:27:51;100772.0;;;14.67;95.77
36834;BME280;48003;52.084;5.224;2023-11-19T02:29:29;100788.0;;;14.5;96.16
36834;BME280;48003;52.084;5.224;2023-11-19T02:32:42;100778.0;;;14.47;95.92
36834;BME280;48003;52.084;5.224;2023-11-19T02:34:19;100795.0;;;14.26;97.45
36834;BME280;48003;52.084;5.224;2023-11-19T02:35:55;100771.0;;;14.48;96.58
36834;BME280;48003;52.084;5.224;2023-11-19T02:39:07;100776.0;;;14.3;97.1
36834;BME280;48003;52.084;5.224;2023-11-19T02:40:44;100768.0;;;14.16;97.98
36834;BME280;48003;52.084;5.224;2023-11-19T02:42:21;100769.0;;;14.36;97.0
36834;BME280;48003;52.084;5.224;2023-11-19T02:43:57;100765.0;;;14.43;95.88
36834;BME280;48003;52.084;5.224;2023-11-19T02:47:11;100769.0;;;14.47;95.32
36834;BME280;48003;52.084;5.224;2023-11-19T02:48:47;100778.0;;;14.21;96.32
36834;BME280;48003;52.084;5.224;2023-11-19T02:50:23;100766.0;;;14.41;95.05
36834;BME280;48003;52.084;5.224;2023-11-19T02:53:37;100766.0;;;14.34;95.37
36834;BME280;48003;52.084;5.224;2023-11-19T02:55:14;100774.0;;;14.22;95.71
36834;BME280;48003;52.084;5.224;2023-11-19T02:56:51;100763.0;;;14.47;93.9
36834;BME280;48003;52.084;5.224;2023-11-19T03:00:06;100770.0;;;14.23;94.92
36834;BME280;48003;52.084;5.224;2023-11-19T03:01:43;100762.0;;;14.17;95.56
36834;BME280;48003;52.084;5.224;2023-11-19T03:03:20;100764.0;;;14.32;95.2
36834;BME280;48003;52.084;5.224;2023-11-19T03:04:56;100748.0;;;14.31;94.73
36834;BME280;48003;52.084;5.224;2023-11-19T03:08:08;100766.0;;;14.1;94.99
36834;BME280;48003;52.084;5.224;2023-11-19T03:09:44;100757.0;;;13.97;96.09
36834;BME280;48003;52.084;5.224;2023-11-19T03:11:20;100752.0;;;14.05;95.63
36834;BME280;48003;52.084;5.224;2023-11-19T03:14:33;100761.0;;;14.17;95.04
36834;BME280;48003;52.084;5.224;2023-11-19T03:16:10;100760.0;;;14.33;93.73
36834;BME280;48003;52.084;5.224;2023-11-19T03:17:46;100760.0;;;14.15;94.3
36834;BME280;48003;52.084;5.224;2023-11-19T03:20:59;100758.0;;;14.14;94.81
36834;BME280;48003;52.084;5.224;2023-11-19T03:22:36;100756.0;;;14.04;95.0
36834;BME280;48003;52.084;5.224;2023-11-19T03:24:13;100764.0;;;14.0;94.66
36834;BME280;48003;52.084;5.224;2023-11-19T03:25:49;100763.0;;;14.24;93.45
36834;BME280;48003;52.084;5.224;2023-11-19T03:29:02;100759.0;;;13.8;96.09
36834;BME280;48003;52.084;5.224;2023-11-19T03:30:39;100759.0;;;13.89;95.05
36834;BME280;48003;52.084;5.224;2023-11-19T03:32:14;100763.0;;;14.08;93.92
36834;BME280;48003;52.084;5.224;2023-11-19T03:35:27;100751.0;;;14.13;92.92
36834;BME280;48003;52.084;5.224;2023-11-19T03:37:03;100753.0;;;14.25;92.44
36834;BME280;48003;52.084;5.224;2023-11-19T03:38:40;100743.0;;;13.95;94.17
36834;BME280;48003;52.084;5.224;2023-11-19T03:41:52;100724.0;;;13.92;93.75
36834;BME280;48003;52.084;5.224;2023-11-19T03:43:31;100733.0;;;13.69;95.54
36834;BME280;48003;52.084;5.224;2023-11-19T03:45:08;100730.0;;;13.93;93.25
36834;BME280;48003;52.084;5.224;2023-11-19T03:46:44;100744.0;;;13.95;93.24
36834;BME280;48003;52.084;5.224;2023-11-19T03:49:56;100749.0;;;13.79;94.51
36834;BME280;48003;52.084;5.224;2023-11-19T03:51:33;100753.0;;;13.77;94.22
36834;BME280;48003;52.084;5.224;2023-11-19T03:53:09;100757.0;;;13.82;93.14
36834;BME280;48003;52.084;5.224;2023-11-19T03:56:22;100757.0;;;13.96;92.43
36834;BME280;48003;52.084;5.224;2023-11-19T03:57:58;100753.0;;;13.86;92.39
36834;BME280;48003;52.084;5.224;2023-11-19T03:59:34;100764.0;;;13.9;92.07
36834;BME280;48003;52.084;5.224;2023-11-19T04:02:48;100769.0;;;14.09;91.37
36834;BME280;48003;52.084;5.224;2023-11-19T04:04:24;100761.0;;;13.81;92.43
36834;BME280;48003;52.084;5.224;2023-11-19T04:06:00;100759.0;;;14.08;91.24
36834;BME280;48003;52.084;5.224;2023-11-19T04:07:36;100759.0;;;14.0;91.42
36834;BME280;48003;52.084;5.224;2023-11-19T04:10:52;100765.0;;;13.76;92.61
36834;BME280;48003;52.084;5.224;2023-11-19T04:12:29;100765.0;;;14.02;91.27
36834;BME280;48003;52.084;5.224;2023-11-19T04:14:05;100766.0;;;13.82;92.54
36834;BME280;48003;52.084;5.224;2023-11-19T04:17:17;100771.0;;;13.98;91.33
36834;BME280;48003;52.084;5.224;2023-11-19T04:18:53;100775.0;;;13.83;91.55
36834;BME280;48003;52.084;5.224;2023-11-19T04:20:30;100781.0;;;13.7;92.56
36834;BME280;48003;52.084;5.224;2023-11-19T04:23:42;100789.0;;;13.73;92.23
36834;BME280;48003;52.084;5.224;2023-11-19T04:25:19;100786.0;;;13.67;92.54
36834;BME280;48003;52.084;5.224;2023-11-19T04:26:55;100783.0;;;13.72;91.84
36834;BME280;48003;52.084;5.224;2023-11-19T04:28:31;100791.0;;;13.9;90.77
36834;BME280;48003;52.084;5.224;2023-11-19T04:31:44;100780.0;;;13.71;91.36
36834;BME280;48003;52.084;5.224;2023-11-19T04:33:20;100781.0;;;13.72;91.97
36834;BME280;48003;52.084;5.224;2023-11-19T04:34:56;100778.0;;;13.43;92.89
36834;BME280;48003;52.084;5.224;2023-11-19T04:38:08;100780.0;;;13.53;92.7
36834;BME280;48003;52.084;5.224;2023-11-19T04:39:44;100774.0;;;13.58;92.28
36834;BME280;48003;52.084;5.224;2023-11-19T04:41:21;100772.0;;;13.68;91.19
36834;BME280;48003;52.084;5.224;2023-11-19T04:44:33;100790.0;;;13.8;89.84
36834;BME280;48003;52.084;5.224;2023-11-19T04:46:09;100786.0;;;13.46;92.17
36834;BME280;48003;52.084;5.224;2023-11-19T04:47:46;100786.0;;;13.69;91.49
36834;BME280;48003;52.084;5.224;2023-11-19T04:50:58;100772.0;;;13.53;91.09
36834;BME280;48003;52.084;5.224;2023-11-19T04:52:37;100774.0;;;13.33;92.6
36834;BME280;48003;52.084;5.224;2023-11-19T04:54:14;100775.0;;;13.57;91.08
36834;BME280;48003;52.084;5.224;2023-11-19T04:55:50;100760.0;;;13.58;90.92
36834;BME280;48003;52.084;5.224;2023-11-19T04:59:03;100765.0;;;13.32;92.38
36834;BME280;48003;52.084;5.224;2023-11-19T05:00:40;100786.0;;;13.46;91.32
36834;BME280;48003;52.084;5.224;2023-11-19T05:02:16;100775.0;;;13.57;90.95
36834;BME280;48003;52.084;5.224;2023-11-19T05:05:28;100769.0;;;13.57;90.38
36834;BME280;48003;52.084;5.224;2023-11-19T05:07:04;100767.0;;;13.49;91.02
36834;BME280;48003;52.084;5.224;2023-11-19T05:08:40;100775.0;;;13.38;90.68
36834;BME280;48003;52.084;5.224;2023-11-19T05:11:52;100772.0;;;13.43;90.56
36834;BME280;48003;52.084;5.224;2023-11-19T05:13:29;100781.0;;;13.44;90.03
36834;BME280;48003;52.084;5.224;2023-11-19T05:15:05;100786.0;;;13.61;89.44
36834;BME280;48003;52.084;5.224;2023-11-19T05:16:42;100783.0;;;13.43;89.95
36834;BME280;48003;52.084;5.224;2023-11-19T05:19:54;100786.0;;;13.43;89.5
36834;BME280;48003;52.084;5.224;2023-11-19T05:21:30;100785.0;;;13.38;90.15
36834;BME280;48003;52.084;5.224;2023-11-19T05:23:06;100783.0;;;13.62;88.54
36834;BME280;48003;52.084;5.224;2023-11-19T05:26:19;100776.0;;;13.36;89.55
36834;BME280;48003;52.084;5.224;2023-11-19T05:27:55;100773.0;;;13.41;89.55
36834;BME280;48003;52.084;5.224;2023-11-19T05:29:31;100757.0;;;13.31;89.83
36834;BME280;48003;52.084;5.224;2023-11-19T05:32:44;100783.0;;;13.38;89.36
36834;BME280;48003;52.084;5.224;2023-11-19T05:34:20;100775.0;;;13.28;89.82
36834;BME280;48003;52.084;5.224;2023-11-19T05:35:56;100771.0;;;13.44;89.17
36834;BME280;48003;52.084;5.224;2023-11-19T05:39:08;100775.0;;;13.41;89.23
36834;BME280;48003;52.084;5.224;2023-11-19T05:40:44;100776.0;;;13.42;89.05
36834;BME280;48003;52.084;5.224;2023-11-19T05:42:20;100775.0;;;13.38;89.58
36834;BME280;48003;52.084;5.224;2023-11-19T05:43:56;100775.0;;;13.44;89.68
36834;BME280;48003;52.084;5.224;2023-11-19T05:47:09;100780.0;;;13.43;89.9
36834;BME280;48003;52.084;5.224;2023-11-19T05:48:45;100780.0;;;13.37;90.17
36834;BME280;48003;52.084;5.224;2023-11-19T05:50:21;100785.0;;;13.32;90.75
36834;BME280;48003;52.084;5.224;2023-11-19T05:53:33;100783.0;;;13.34;90.18
36834;BME280;48003;52.084;5.224;2023-11-19T05:55:09;100796.0;;;13.24;91.19
36834;BME280;48003;52.084;5.224;2023-11-19T05:56:47;100787.0;;;13.35;90.31
36834;BME280;48003;52.084;5.224;2023-11-19T06:00:02;100797.0;;;13.39;89.72
36834;BME280;48003;52.084;5.224;2023-11-19T06:01:38;100818.0;;;13.36;90.59
36834;BME280;48003;52.084;5.224;2023-11-19T06:03:15;100787.0;;;13.35;90.4
36834;BME280;48003;52.084;5.224;2023-11-19T06:04:51;100785.0;;;13.2;90.68
36834;BME280;48003;52.084;5.224;2023-11-19T06:08:05;100777.0;;;13.25;90.91
36834;BME280;48003;52.084;5.224;2023-11-19T06:09:41;100773.0;;;13.56;89.27
36834;BME280;48003;52.084;5.224;2023-11-19T06:11:17;100772.0;;;13.3;89.94
36834;BME280;48003;52.084;5.224;2023-11-19T06:14:30;100777.0;;;13.53;88.91
36834;BME280;48003;52.084;5.224;2023-11-19T06:16:06;100774.0;;;13.59;88.71
36834;BME280;48003;52.084;5.224;2023-11-19T06:17:43;100775.0;;;13.09;91.01
36834;BME280;48003;52.084;5.224;2023-11-19T06:20:55;100778.0;;;13.64;88.52
36834;BME280;48003;52.084;5.224;2023-11-19T06:22:31;100781.0;;;13.35;89.28
36834;BME280;48003;52.084;5.224;2023-11-19T06:24:08;100781.0;;;13.4;89.52
36834;BME280;48003;52.084;5.224;2023-11-19T06:25:45;100782.0;;;13.4;89.5
36834;BME280;48003;52.084;5.224;2023-11-19T06:28:57;100782.0;;;13.6;88.17
36834;BME280;48003;52.084;5.224;2023-11-19T06:30:33;100784.0;;;13.44;88.41
36834;BME280;48003;52.084;5.224;2023-11-19T06:32:09;100793.0;;;13.3;89.6
36834;BME280;48003;52.084;5.224;2023-11-19T06:35:22;100795.0;;;13.56;87.75
36834;BME280;48003;52.084;5.224;2023-11-19T06:36:58;100790.0;;;13.39;88.78
36834;BME280;48003;52.084;5.224;2023-11-19T06:38:34;100789.0;;;13.14;90.13
36834;BME280;48003;52.084;5.224;2023-11-19T06:41:48;100791.0;;;13.14;90.16
36834;BME280;48003;52.084;5.224;2023-11-19T06:43:24;100798.0;;;13.04;90.51
36834;BME280;48003;52.084;5.224;2023-11-19T06:45:01;100801.0;;;13.19;89.96
36834;BME280;48003;52.084;5.224;2023-11-19T06:46:37;100831.0;;;13.11;90.47
36834;BME280;48003;52.084;5.224;2023-11-19T06:49:50;100803.0;;;13.46;88.43
36834;BME280;48003;52.084;5.224;2023-11-19T06:51:26;100807.0;;;13.65;86.91
36834;BME280;48003;52.084;5.224;2023-11-19T06:53:03;100796.0;;;13.51;87.58
36834;BME280;48003;52.084;5.224;2023-11-19T06:56:18;100803.0;;;13.21;88.75
36834;BME280;48003;52.084;5.224;2023-11-19T06:57:59;100805.0;;;13.21;89.04
36834;BME280;48003;52.084;5.224;2023-11-19T06:59:36;100803.0;;;13.46;87.64
36834;BME280;48003;52.084;5.224;2023-11-19T07:02:49;100807.0;;;13.38;87.41
36834;BME280;48003;52.084;5.224;2023-11-19T07:04:25;100808.0;;;13.25;88.69
36834;BME280;48003;52.084;5.224;2023-11-19T07:06:03;100811.0;;;13.41;87.99
36834;BME280;48003;52.084;5.224;2023-11-19T07:07:40;100823.0;;;13.49;87.61
36834;BME280;48003;52.084;5.224;2023-11-19T07:10:52;100813.0;;;13.38;88.17
36834;BME280;48003;52.084;5.224;2023-11-19T07:12:28;100824.0;;;13.26;88.85
36834;BME280;48003;52.084;5.224;2023-11-19T07:14:05;100823.0;;;13.24;88.83
36834;BME280;48003;52.084;5.224;2023-11-19T07:17:18;100824.0;;;13.32;88.88
36834;BME280;48003;52.084;5.224;2023-11-19T07:18:55;100821.0;;;13.27;88.75
36834;BME280;48003;52.084;5.224;2023-11-19T07:20:32;100825.0;;;13.08;90.18
36834;BME280;48003;52.084;5.224;2023-11-19T07:23:45;100831.0;;;13.09;90.48
36834;BME280;48003;52.084;5.224;2023-11-19T07:25:22;100830.0;;;13.23;89.67
36834;BME280;48003;52.084;5.224;2023-11-19T07:26:58;100825.0;;;13.48;88.39
36834;BME280;48003;52.084;5.224;2023-11-19T07:28:34;100834.0;;;13.22;88.58
36834;BME280;48003;52.084;5.224;2023-11-19T07:31:48;100840.0;;;13.42;88.06
36834;BME280;48003;52.084;5.224;2023-11-19T07:33:24;100838.0;;;13.27;88.46
36834;BME280;48003;52.084;5.224;2023-11-19T07:35:00;100836.0;;;13.34;88.92
36834;BME280;48003;52.084;5.224;2023-11-19T07:38:14;100835.0;;;13.19;89.13
36834;BME280;48003;52.084;5.224;2023-11-19T07:39:49;100833.0;;;13.35;88.66
36834;BME280;48003;52.084;5.224;2023-11-19T07:41:26;100837.0;;;13.47;88.23
36834;BME280;48003;52.084;5.224;2023-11-19T07:44:38;100842.0;;;13.48;88.36
36834;BME280;48003;52.084;5.224;2023-11-19T07:46:14;100836.0;;;13.39;88.63
36834;BME280;48003;52.084;5.224;2023-11-19T07:47:50;100842.0;;;13.5;88.62
36834;BME280;48003;52.084;5.224;2023-11-19T07:49:27;100847.0;;;13.48;88.79
36834;BME280;48003;52.084;5.224;2023-11-19T07:52:39;100846.0;;;13.55;88.11
36834;BME280;48003;52.084;5.224;2023-11-19T07:54:16;100843.0;;;13.51;88.77
36834;BME280;48003;52.084;5.224;2023-11-19T07:55:52;100843.0;;;13.43;88.85
36834;BME280;48003;52.084;5.224;2023-11-19T07:59:05;100846.0;;;13.37;89.47
36834;BME280;48003;52.084;5.224;2023-11-19T08:00:41;100834.0;;;13.43;89.15
36834;BME280;48003;52.084;5.224;2023-11-19T08:02:17;100836.0;;;13.59;88.6
36834;BME280;48003;52.084;5.224;2023-11-19T08:05:31;100842.0;;;13.58;89.09
36834;BME280;48003;52.084;5.224;2023-11-19T08:07:07;100840.0;;;13.56;89.34
36834;BME280;48003;52.084;5.224;2023-11-19T08:08:43;100840.0;;;13.6;88.82
36834;BME280;48003;52.084;5.224;2023-11-19T08:10:21;100844.0;;;13.29;91.04
36834;BME280;48003;52.084;5.224;2023-11-19T08:13:34;100845.0;;;13.82;88.45
36834;BME280;48003;52.084;5.224;2023-11-19T08:15:11;100834.0;;;13.56;88.93
36834;BME280;48003;52.084;5.224;2023-11-19T08:16:47;100847.0;;;13.33;90.74
36834;BME280;48003;52.084;5.224;2023-11-19T08:19:59;100837.0;;;13.47;90.33
36834;BME280;48003;52.084;5.224;2023-11-19T08:21:35;100837.0;;;13.59;90.12
36834;BME280;48003;52.084;5.224;2023-11-19T08:23:11;100834.0;;;13.46;89.94
36834;BME280;48003;52.084;5.224;2023-11-19T08:26:25;100846.0;;;13.69;89.06
36834;BME280;48003;52.084;5.224;2023-11-19T08:28:01;100840.0;;;13.68;88.81
36834;BME280;48003;52.084;5.224;2023-11-19T08:29:37;100847.0;;;13.41;89.89
36834;BME280;48003;52.084;5.224;2023-11-19T08:31:13;100855.0;;;13.32;90.37
36834;BME280;48003;52.084;5.224;2023-11-19T08:34:26;100853.0;;;13.48;89.65
36834;BME280;48003;52.084;5.224;2023-11-19T08:36:03;100843.0;;;13.64;89.66
36834;BME280;48003;52.084;5.224;2023-11-19T08:37:40;100855.0;;;13.51;88.82
36834;BME280;48003;52.084;5.224;2023-11-19T08:40:52;100848.0;;;13.52;88.99
36834;BME280;48003;52.084;5.224;2023-11-19T08:42:28;100861.0;;;13.7;88.11
36834;BME280;48003;52.084;5.224;2023-11-19T08:44:04;100851.0;;;13.64;88.35
36834;BME280;48003;52.084;5.224;2023-11-19T08:47:17;100864.0;;;13.76;87.96
36834;BME280;48003;52.084;5.224;2023-11-19T08:48:54;100863.0;;;13.69;87.63
36834;BME280;48003;52.084;5.224;2023-11-19T08:50:31;100860.0;;;13.7;88.14
36834;BME280;48003;52.084;5.224;2023-11-19T08:52:08;100856.0;;;13.47;89.39
36834;BME280;48003;52.084;5.224;2023-11-19T08:55:21;100864.0;;;13.67;88.92
36834;BME280;48003;52.084;5.224;2023-11-19T08:56:57;100861.0;;;13.93;87.52
36834;BME280;48003;52.084;5.224;2023-11-19T08:58:34;100858.0;;;13.97;87.42
36834;BME280;48003;52.084;5.224;2023-11-19T09:01:48;100862.0;;;13.69;87.78
36834;BME280;48003;52.084;5.224;2023-11-19T09:03:25;100863.0;;;13.75;88.11
36834;BME280;48003;52.084;5.224;2023-11-19T09:05:01;100856.0;;;13.81;88.1
36834;BME280;48003;52.084;5.224;2023-11-19T09:08:16;100848.0;;;13.76;88.06
36834;BME280;48003;52.084;5.224;2023-11-19T09:09:52;100851.0;;;13.5;89.1
36834;BME280;48003;52.084;5.224;2023-11-19T09:11:29;100863.0;;;13.89;87.75
36834;BME280;48003;52.084;5.224;2023-11-19T09:13:06;100855.0;;;13.78;86.82
36834;BME280;48003;52.084;5.224;2023-11-19T09:16:18;100855.0;;;13.62;88.33
36834;BME280;48003;52.084;5.224;2023-11-19T09:17:54;100862.0;;;13.56;88.53
36834;BME280;48003;52.084;5.224;2023-11-19T09:19:32;100856.0;;;13.76;87.36
36834;BME280;48003;52.084;5.224;2023-11-19T09:22:47;100853.0;;;13.5;88.85
36834;BME280;48003;52.084;5.224;2023-11-19T09:24:22;100852.0;;;13.8;87.64
36834;BME280;48003;52.084;5.224;2023-11-19T09:25:59;100857.0;;;14.1;86.01
36834;BME280;48003;52.084;5.224;2023-11-19T09:29:12;100858.0;;;13.9;87.11
36834;BME280;48003;52.084;5.224;2023-11-19T09:30:49;100855.0;;;13.87;87.67
36834;BME280;48003;52.084;5.224;2023-11-19T09:32:26;100859.0;;;14.09;86.29
36834;BME280;48003;52.084;5.224;2023-11-19T09:34:03;100861.0;;;13.86;86.13
36834;BME280;48003;52.084;5.224;2023-11-19T09:37:15;100857.0;;;13.99;86.93
36834;BME280;48003;52.084;5.224;2023-11-19T09:38:52;100865.0;;;13.84;86.82
36834;BME280;48003;52.084;5.224;2023-11-19T09:40:28;100863.0;;;14.05;86.66
36834;BME280;48003;52.084;5.224;2023-11-19T09:43:42;100864.0;;;13.91;87.31
36834;BME280;48003;52.084;5.224;2023-11-19T09:45:20;100860.0;;;14.1;86.96
36834;BME280;48003;52.084;5.224;2023-11-19T09:46:58;100855.0;;;13.98;86.92
36834;BME280;48003;52.084;5.224;2023-11-19T09:48:36;100852.0;;;14.0;86.51
36834;BME280;48003;52.084;5.224;2023-11-19T09:51:53;100857.0;;;14.01;86.74
36834;BME280;48003;52.084;5.224;2023-11-19T09:53:31;100858.0;;;13.86;87.06
36834;BME280;48003;52.084;5.224;2023-11-19T09:55:08;100855.0;;;14.01;86.23
36834;BME280;48003;52.084;5.224;2023-11-19T09:58:23;100848.0;;;13.99;86.02
36834;BME280;48003;52.084;5.224;2023-11-19T09:59:58;100845.0;;;14.15;85.23
36834;BME280;48003;52.084;5.224;2023-11-19T10:01:37;100859.0;;;14.37;84.57
36834;BME280;48003;52.084;5.224;2023-11-19T10:04:50;100860.0;;;14.31;84.34
36834;BME280;48003;52.084;5.224;2023-11-19T10:06:28;100843.0;;;14.23;84.95
36834;BME280;48003;52.084;5.224;2023-11-19T10:08:06;100844.0;;;14.12;85.28
36834;BME280;48003;52.084;5.224;2023-11-19T10:09:43;100842.0;;;14.16;85.47
36834;BME280;48003;52.084;5.224;2023-11-19T10:12:55;100831.0;;;14.05;85.35
36834;BME280;48003;52.084;5.224;2023-11-19T10:14:31;100843.0;;;14.37;84.42
36834;BME280;48003;52.084;5.224;2023-11-19T10:16:12;100831.0;;;14.28;84.96
36834;BME280;48003;52.084;5.224;2023-11-19T10:19:24;100843.0;;;14.38;84.37
36834;BME280;48003;52.084;5.224;2023-11-19T10:21:00;100843.0;;;14.45;84.04
36834;BME280;48003;52.084;5.224;2023-11-19T10:22:37;100839.0;;;14.57;83.34
36834;BME280;48003;52.084;5.224;2023-11-19T10:24:14;100835.0;;;14.62;82.51
36834;BME280;48003;52.084;5.224;2023-11-19T10:27:29;100830.0;;;14.67;82.76
36834;BME280;48003;52.084;5.224;2023-11-19T10:29:06;100824.0;;;14.56;82.95
36834;BME280;48003;52.084;5.224;2023-11-19T10:30:42;100838.0;;;14.46;83.69
36834;BME280;48003;52.084;5.224;2023-11-19T10:33:55;100834.0;;;14.62;83.28
36834;BME280;48003;52.084;5.224;2023-11-19T10:35:32;100818.0;;;14.68;83.11
36834;BME280;48003;52.084;5.224;2023-11-19T10:37:27;100826.0;;;14.85;82.21
36834;BME280;48003;52.084;5.224;2023-11-19T10:39:03;100825.0;;;14.93;81.08
36834;BME280;48003;52.084;5.224;2023-11-19T10:42:16;100810.0;;;14.82;81.12
36834;BME280;48003;52.084;5.224;2023-11-19T10:43:53;100818.0;;;14.84;82.13
36834;BME280;48003;52.084;5.224;2023-11-19T10:45:29;100819.0;;;14.86;82.22
36834;BME280;48003;52.084;5.224;2023-11-19T10:48:44;100814.0;;;14.96;81.44
36834;BME280;48003;52.084;5.224;2023-11-19T10:50:20;100819.0;;;15.05;82.08
36834;BME280;48003;52.084;5.224;2023-11-19T10:51:56;100821.0;;;14.94;80.64
36834;BME280;48003;52.084;5.224;2023-11-19T10:53:37;100814.0;;;14.94;80.89
36834;BME280;48003;52.084;5.224;2023-11-19T10:56:58;100813.0;;;15.09;80.92
36834;BME280;48003;52.084;5.224;2023-11-19T10:58:36;100805.0;;;15.19;80.22
36834;BME280;48003;52.084;5.224;2023-11-19T11:00:17;100811.0;;;15.22;79.77
36834;BME280;48003;52.084;5.224;2023-11-19T11:01:56;100812.0;;;15.42;77.75
36834;BME280;48003;52.084;5.224;2023-11-19T11:05:17;100819.0;;;15.32;79.17
36834;BME280;48003;52.084;5.224;2023-11-19T11:06:55;100822.0;;;15.37;79.08